sensor_id;sensor_type;location;lat;lon;timestamp;P1;durP1;ratioP1;P2;durP2;ratioP2
19101;SDS011;9683;49.028;12.064;2022-07-23T00:01:02;32.80;;;5.10;;
19101;SDS011;9683;49.028;12.064;2022-07-23T00:03:30;51.60;;;5.27;;
19101;SDS011;9683;49.028;12.064;2022-07-23T00:05:57;64.20;;;6.37;;
19101;SDS011;9683;49.028;12.064;2022-07-23T00:08:24;48.50;;;6.03;;
19101;SDS011;9683;49.028;12.064;2022-07-23T00:10:50;53.43;;;7.73;;
19101;SDS011;9683;49.028;12.064;2022-07-23T00:13:17;33.93;;;7.70;;
19101;SDS011;9683;49.028;12.064;2022-07-23T00:15:44;75.27;;;10.17;;
19101;SDS011;9683;49.028;12.064;2022-07-23T00:18:10;57.90;;;6.43;;
19101;SDS011;9683;49.028;12.064;2022-07-23T00:20:38;152.40;;;12.20;;
19101;SDS011;9683;49.028;12.064;2022-07-23T00:23:05;78.50;;;7.90;;
19101;SDS011;9683;49.028;12.064;2022-07-23T00:25:32;43.47;;;5.67;;
19101;SDS011;9683;49.028;12.064;2022-07-23T00:27:59;43.53;;;5.33;;
19101;SDS011;9683;49.028;12.064;2022-07-23T00:30:26;88.60;;;7.83;;
19101;SDS011;9683;49.028;12.064;2022-07-23T00:32:55;36.27;;;7.00;;
19101;SDS011;9683;49.028;12.064;2022-07-23T00:35:23;67.40;;;8.40;;
19101;SDS011;9683;49.028;12.064;2022-07-23T00:37:51;59.70;;;6.33;;
19101;SDS011;9683;49.028;12.064;2022-07-23T00:40:18;109.40;;;9.77;;
19101;SDS011;9683;49.028;12.064;2022-07-23T00:42:45;35.90;;;5.27;;
19101;SDS011;9683;49.028;12.064;2022-07-23T00:45:12;72.90;;;6.70;;
19101;SDS011;9683;49.028;12.064;2022-07-23T00:47:39;32.90;;;5.70;;
19101;SDS011;9683;49.028;12.064;2022-07-23T00:50:07;38.23;;;5.40;;
19101;SDS011;9683;49.028;12.064;2022-07-23T00:52:36;45.93;;;5.60;;
19101;SDS011;9683;49.028;12.064;2022-07-23T00:55:06;31.77;;;4.60;;
19101;SDS011;9683;49.028;12.064;2022-07-23T00:57:34;51.17;;;6.00;;
19101;SDS011;9683;49.028;12.064;2022-07-23T01:00:01;38.27;;;5.20;;
19101;SDS011;9683;49.028;12.064;2022-07-23T01:02:30;56.27;;;6.10;;
19101;SDS011;9683;49.028;12.064;2022-07-23T01:04:56;39.90;;;4.70;;
19101;SDS011;9683;49.028;12.064;2022-07-23T01:07:23;55.00;;;7.10;;
19101;SDS011;9683;49.028;12.064;2022-07-23T01:09:50;81.43;;;8.80;;
19101;SDS011;9683;49.028;12.064;2022-07-23T01:12:18;31.67;;;5.07;;
19101;SDS011;9683;49.028;12.064;2022-07-23T01:14:49;36.90;;;5.40;;
19101;SDS011;9683;49.028;12.064;2022-07-23T01:17:19;38.10;;;6.07;;
19101;SDS011;9683;49.028;12.064;2022-07-23T01:19:46;36.90;;;7.57;;
19101;SDS011;9683;49.028;12.064;2022-07-23T01:22:13;83.93;;;10.87;;
19101;SDS011;9683;49.028;12.064;2022-07-23T01:24:44;83.10;;;10.67;;
19101;SDS011;9683;49.028;12.064;2022-07-23T01:27:11;34.90;;;7.80;;
19101;SDS011;9683;49.028;12.064;2022-07-23T01:29:38;35.70;;;8.30;;
19101;SDS011;9683;49.028;12.064;2022-07-23T01:32:05;57.70;;;9.70;;
19101;SDS011;9683;49.028;12.064;2022-07-23T01:34:32;44.30;;;8.57;;
19101;SDS011;9683;49.028;12.064;2022-07-23T01:36:59;45.67;;;8.90;;
19101;SDS011;9683;49.028;12.064;2022-07-23T01:39:25;74.83;;;9.10;;
19101;SDS011;9683;49.028;12.064;2022-07-23T01:41:53;34.57;;;4.83;;
19101;SDS011;9683;49.028;12.064;2022-07-23T01:44:20;28.60;;;4.80;;
19101;SDS011;9683;49.028;12.064;2022-07-23T01:46:47;31.53;;;4.50;;
19101;SDS011;9683;49.028;12.064;2022-07-23T01:49:13;60.83;;;6.90;;
19101;SDS011;9683;49.028;12.064;2022-07-23T01:51:40;41.07;;;5.07;;
19101;SDS011;9683;49.028;12.064;2022-07-23T01:54:24;28.90;;;4.43;;
19101;SDS011;9683;49.028;12.064;2022-07-23T01:56:51;36.53;;;6.03;;
19101;SDS011;9683;49.028;12.064;2022-07-23T01:59:19;47.47;;;6.00;;
19101;SDS011;9683;49.028;12.064;2022-07-23T02:01:46;41.80;;;5.17;;
19101;SDS011;9683;49.028;12.064;2022-07-23T02:04:12;38.17;;;5.33;;
19101;SDS011;9683;49.028;12.064;2022-07-23T02:06:39;60.67;;;7.73;;
19101;SDS011;9683;49.028;12.064;2022-07-23T02:09:06;43.80;;;6.37;;
19101;SDS011;9683;49.028;12.064;2022-07-23T02:11:32;41.03;;;6.87;;
19101;SDS011;9683;49.028;12.064;2022-07-23T02:13:59;39.93;;;6.67;;
19101;SDS011;9683;49.028;12.064;2022-07-23T02:16:27;37.83;;;5.63;;
19101;SDS011;9683;49.028;12.064;2022-07-23T02:18:54;36.47;;;6.97;;
19101;SDS011;9683;49.028;12.064;2022-07-23T02:21:21;65.13;;;8.77;;
19101;SDS011;9683;49.028;12.064;2022-07-23T02:23:48;37.30;;;6.73;;
19101;SDS011;9683;49.028;12.064;2022-07-23T02:26:14;32.60;;;5.77;;
19101;SDS011;9683;49.028;12.064;2022-07-23T02:28:41;47.33;;;5.73;;
19101;SDS011;9683;49.028;12.064;2022-07-23T02:31:08;35.33;;;5.57;;
19101;SDS011;9683;49.028;12.064;2022-07-23T02:33:36;43.97;;;8.60;;
19101;SDS011;9683;49.028;12.064;2022-07-23T02:36:03;45.67;;;7.40;;
19101;SDS011;9683;49.028;12.064;2022-07-23T02:38:30;40.00;;;7.60;;
19101;SDS011;9683;49.028;12.064;2022-07-23T02:40:56;37.40;;;5.97;;
19101;SDS011;9683;49.028;12.064;2022-07-23T02:43:23;55.33;;;8.37;;
19101;SDS011;9683;49.028;12.064;2022-07-23T02:45:50;30.70;;;6.10;;
19101;SDS011;9683;49.028;12.064;2022-07-23T02:48:16;52.53;;;7.00;;
19101;SDS011;9683;49.028;12.064;2022-07-23T02:50:44;42.73;;;7.43;;
19101;SDS011;9683;49.028;12.064;2022-07-23T02:53:11;63.43;;;8.50;;
19101;SDS011;9683;49.028;12.064;2022-07-23T02:55:38;49.33;;;7.63;;
19101;SDS011;9683;49.028;12.064;2022-07-23T02:58:04;84.40;;;9.00;;
19101;SDS011;9683;49.028;12.064;2022-07-23T03:00:31;43.00;;;6.93;;
19101;SDS011;9683;49.028;12.064;2022-07-23T03:02:58;40.97;;;4.90;;
19101;SDS011;9683;49.028;12.064;2022-07-23T03:05:24;47.77;;;5.70;;
19101;SDS011;9683;49.028;12.064;2022-07-23T03:07:52;40.13;;;5.97;;
19101;SDS011;9683;49.028;12.064;2022-07-23T03:10:19;62.17;;;5.73;;
19101;SDS011;9683;49.028;12.064;2022-07-23T03:12:46;45.77;;;5.37;;
19101;SDS011;9683;49.028;12.064;2022-07-23T03:15:12;99.13;;;7.87;;
19101;SDS011;9683;49.028;12.064;2022-07-23T03:17:39;45.70;;;7.00;;
19101;SDS011;9683;49.028;12.064;2022-07-23T03:20:06;60.33;;;7.67;;
19101;SDS011;9683;49.028;12.064;2022-07-23T03:22:34;46.23;;;6.73;;
19101;SDS011;9683;49.028;12.064;2022-07-23T03:25:02;44.33;;;6.60;;
19101;SDS011;9683;49.028;12.064;2022-07-23T03:27:30;37.77;;;5.87;;
19101;SDS011;9683;49.028;12.064;2022-07-23T03:29:57;37.40;;;6.20;;
19101;SDS011;9683;49.028;12.064;2022-07-23T03:32:25;42.87;;;6.23;;
19101;SDS011;9683;49.028;12.064;2022-07-23T03:34:52;42.50;;;6.90;;
19101;SDS011;9683;49.028;12.064;2022-07-23T03:37:19;34.60;;;5.07;;
19101;SDS011;9683;49.028;12.064;2022-07-23T03:39:46;34.83;;;4.00;;
19101;SDS011;9683;49.028;12.064;2022-07-23T03:42:14;65.60;;;5.97;;
19101;SDS011;9683;49.028;12.064;2022-07-23T03:44:40;49.80;;;6.50;;
19101;SDS011;9683;49.028;12.064;2022-07-23T03:47:07;40.53;;;4.70;;
19101;SDS011;9683;49.028;12.064;2022-07-23T03:49:33;58.87;;;6.40;;
19101;SDS011;9683;49.028;12.064;2022-07-23T03:52:00;15.17;;;3.87;;
19101;SDS011;9683;49.028;12.064;2022-07-23T03:54:27;38.27;;;4.23;;
19101;SDS011;9683;49.028;12.064;2022-07-23T03:56:54;54.27;;;4.87;;
19101;SDS011;9683;49.028;12.064;2022-07-23T03:59:22;40.17;;;4.10;;
19101;SDS011;9683;49.028;12.064;2022-07-23T04:01:49;38.77;;;3.87;;
19101;SDS011;9683;49.028;12.064;2022-07-23T04:04:15;57.20;;;5.60;;
19101;SDS011;9683;49.028;12.064;2022-07-23T04:06:42;30.70;;;3.20;;
19101;SDS011;9683;49.028;12.064;2022-07-23T04:09:09;38.20;;;3.73;;
19101;SDS011;9683;49.028;12.064;2022-07-23T04:11:35;51.50;;;5.47;;
19101;SDS011;9683;49.028;12.064;2022-07-23T04:14:02;33.37;;;3.80;;
19101;SDS011;9683;49.028;12.064;2022-07-23T04:16:30;76.47;;;6.63;;
19101;SDS011;9683;49.028;12.064;2022-07-23T04:18:57;53.63;;;4.80;;
19101;SDS011;9683;49.028;12.064;2022-07-23T04:21:23;34.47;;;3.70;;
19101;SDS011;9683;49.028;12.064;2022-07-23T04:23:50;31.50;;;3.03;;
19101;SDS011;9683;49.028;12.064;2022-07-23T04:26:17;45.20;;;4.37;;
19101;SDS011;9683;49.028;12.064;2022-07-23T04:28:44;41.77;;;5.00;;
19101;SDS011;9683;49.028;12.064;2022-07-23T04:31:10;49.93;;;4.30;;
19101;SDS011;9683;49.028;12.064;2022-07-23T04:33:38;98.47;;;6.93;;
19101;SDS011;9683;49.028;12.064;2022-07-23T04:36:05;30.73;;;2.80;;
19101;SDS011;9683;49.028;12.064;2022-07-23T04:38:32;34.70;;;3.73;;
19101;SDS011;9683;49.028;12.064;2022-07-23T04:40:59;42.70;;;4.73;;
19101;SDS011;9683;49.028;12.064;2022-07-23T04:43:26;34.33;;;4.03;;
19101;SDS011;9683;49.028;12.064;2022-07-23T04:45:53;36.40;;;4.57;;
19101;SDS011;9683;49.028;12.064;2022-07-23T04:48:19;25.73;;;3.00;;
19101;SDS011;9683;49.028;12.064;2022-07-23T04:50:47;67.60;;;4.77;;
19101;SDS011;9683;49.028;12.064;2022-07-23T04:53:14;55.30;;;5.10;;
19101;SDS011;9683;49.028;12.064;2022-07-23T04:55:42;59.23;;;6.53;;
19101;SDS011;9683;49.028;12.064;2022-07-23T04:58:09;51.53;;;4.40;;
19101;SDS011;9683;49.028;12.064;2022-07-23T05:00:36;44.03;;;3.87;;
19101;SDS011;9683;49.028;12.064;2022-07-23T05:03:02;35.73;;;3.60;;
19101;SDS011;9683;49.028;12.064;2022-07-23T05:05:29;41.07;;;3.90;;
19101;SDS011;9683;49.028;12.064;2022-07-23T05:07:57;50.77;;;5.67;;
19101;SDS011;9683;49.028;12.064;2022-07-23T05:10:24;97.37;;;8.20;;
19101;SDS011;9683;49.028;12.064;2022-07-23T05:12:51;71.90;;;5.37;;
19101;SDS011;9683;49.028;12.064;2022-07-23T05:15:17;100.73;;;7.07;;
19101;SDS011;9683;49.028;12.064;2022-07-23T05:17:44;41.20;;;4.93;;
19101;SDS011;9683;49.028;12.064;2022-07-23T05:20:11;77.67;;;7.10;;
19101;SDS011;9683;49.028;12.064;2022-07-23T05:22:38;52.73;;;5.40;;
19101;SDS011;9683;49.028;12.064;2022-07-23T05:25:07;66.97;;;5.53;;
19101;SDS011;9683;49.028;12.064;2022-07-23T05:27:34;44.70;;;4.73;;
19101;SDS011;9683;49.028;12.064;2022-07-23T05:30:00;33.07;;;3.43;;
19101;SDS011;9683;49.028;12.064;2022-07-23T05:32:27;51.63;;;4.63;;
19101;SDS011;9683;49.028;12.064;2022-07-23T05:34:54;42.07;;;4.37;;
19101;SDS011;9683;49.028;12.064;2022-07-23T05:37:21;37.50;;;4.40;;
19101;SDS011;9683;49.028;12.064;2022-07-23T05:39:47;46.17;;;4.20;;
19101;SDS011;9683;49.028;12.064;2022-07-23T05:42:15;38.53;;;4.17;;
19101;SDS011;9683;49.028;12.064;2022-07-23T05:44:42;36.77;;;3.97;;
19101;SDS011;9683;49.028;12.064;2022-07-23T05:47:09;68.03;;;5.60;;
19101;SDS011;9683;49.028;12.064;2022-07-23T05:49:36;31.83;;;3.47;;
19101;SDS011;9683;49.028;12.064;2022-07-23T05:52:03;36.80;;;4.60;;
19101;SDS011;9683;49.028;12.064;2022-07-23T05:54:31;40.50;;;3.90;;
19101;SDS011;9683;49.028;12.064;2022-07-23T05:57:00;28.97;;;3.43;;
19101;SDS011;9683;49.028;12.064;2022-07-23T05:59:28;32.10;;;4.00;;
19101;SDS011;9683;49.028;12.064;2022-07-23T06:01:55;43.87;;;4.43;;
19101;SDS011;9683;49.028;12.064;2022-07-23T06:04:21;53.20;;;5.07;;
19101;SDS011;9683;49.028;12.064;2022-07-23T06:06:48;43.13;;;4.00;;
19101;SDS011;9683;49.028;12.064;2022-07-23T06:09:15;58.23;;;4.63;;
19101;SDS011;9683;49.028;12.064;2022-07-23T06:11:42;32.00;;;3.40;;
19101;SDS011;9683;49.028;12.064;2022-07-23T06:14:08;37.63;;;3.50;;
19101;SDS011;9683;49.028;12.064;2022-07-23T06:16:36;55.63;;;4.60;;
19101;SDS011;9683;49.028;12.064;2022-07-23T06:19:03;33.63;;;3.63;;
19101;SDS011;9683;49.028;12.064;2022-07-23T06:21:30;69.77;;;5.23;;
19101;SDS011;9683;49.028;12.064;2022-07-23T06:23:57;54.93;;;4.60;;
19101;SDS011;9683;49.028;12.064;2022-07-23T06:26:23;57.37;;;4.83;;
19101;SDS011;9683;49.028;12.064;2022-07-23T06:28:50;48.87;;;4.37;;
19101;SDS011;9683;49.028;12.064;2022-07-23T06:31:17;33.03;;;3.47;;
19101;SDS011;9683;49.028;12.064;2022-07-23T06:33:45;44.40;;;3.53;;
19101;SDS011;9683;49.028;12.064;2022-07-23T06:36:11;44.40;;;4.40;;
19101;SDS011;9683;49.028;12.064;2022-07-23T06:38:38;42.10;;;4.33;;
19101;SDS011;9683;49.028;12.064;2022-07-23T06:41:05;45.23;;;3.80;;
19101;SDS011;9683;49.028;12.064;2022-07-23T06:43:31;77.90;;;5.90;;
19101;SDS011;9683;49.028;12.064;2022-07-23T06:45:58;65.70;;;4.83;;
19101;SDS011;9683;49.028;12.064;2022-07-23T06:48:25;37.10;;;4.03;;
19101;SDS011;9683;49.028;12.064;2022-07-23T06:50:53;35.20;;;3.30;;
19101;SDS011;9683;49.028;12.064;2022-07-23T06:53:19;25.43;;;2.93;;
19101;SDS011;9683;49.028;12.064;2022-07-23T06:55:46;29.47;;;3.20;;
19101;SDS011;9683;49.028;12.064;2022-07-23T06:58:13;32.57;;;2.93;;
19101;SDS011;9683;49.028;12.064;2022-07-23T07:00:40;38.83;;;3.57;;
19101;SDS011;9683;49.028;12.064;2022-07-23T07:03:07;33.13;;;3.37;;
19101;SDS011;9683;49.028;12.064;2022-07-23T07:05:34;43.33;;;3.27;;
19101;SDS011;9683;49.028;12.064;2022-07-23T07:08:02;47.30;;;3.63;;
19101;SDS011;9683;49.028;12.064;2022-07-23T07:10:29;42.50;;;3.83;;
19101;SDS011;9683;49.028;12.064;2022-07-23T07:12:55;31.23;;;3.87;;
19101;SDS011;9683;49.028;12.064;2022-07-23T07:15:22;69.83;;;5.07;;
19101;SDS011;9683;49.028;12.064;2022-07-23T07:17:49;43.67;;;3.40;;
19101;SDS011;9683;49.028;12.064;2022-07-23T07:20:15;77.93;;;5.33;;
19101;SDS011;9683;49.028;12.064;2022-07-23T07:22:42;47.77;;;3.50;;
19101;SDS011;9683;49.028;12.064;2022-07-23T07:25:11;77.67;;;5.77;;
19101;SDS011;9683;49.028;12.064;2022-07-23T07:27:38;49.80;;;3.87;;
19101;SDS011;9683;49.028;12.064;2022-07-23T07:30:05;34.63;;;3.47;;
19101;SDS011;9683;49.028;12.064;2022-07-23T07:32:32;56.20;;;4.77;;
19101;SDS011;9683;49.028;12.064;2022-07-23T07:35:01;61.43;;;4.23;;
19101;SDS011;9683;49.028;12.064;2022-07-23T07:37:28;48.43;;;3.80;;
19101;SDS011;9683;49.028;12.064;2022-07-23T07:39:55;34.87;;;3.50;;
19101;SDS011;9683;49.028;12.064;2022-07-23T07:42:23;73.67;;;5.33;;
19101;SDS011;9683;49.028;12.064;2022-07-23T07:44:49;48.43;;;3.70;;
19101;SDS011;9683;49.028;12.064;2022-07-23T07:47:16;54.40;;;4.00;;
19101;SDS011;9683;49.028;12.064;2022-07-23T07:49:43;35.20;;;3.50;;
19101;SDS011;9683;49.028;12.064;2022-07-23T07:52:10;48.37;;;4.17;;
19101;SDS011;9683;49.028;12.064;2022-07-23T07:54:37;43.97;;;3.57;;
19101;SDS011;9683;49.028;12.064;2022-07-23T07:57:03;32.37;;;2.87;;
19101;SDS011;9683;49.028;12.064;2022-07-23T07:59:32;112.60;;;7.43;;
19101;SDS011;9683;49.028;12.064;2022-07-23T08:01:58;55.60;;;4.67;;
19101;SDS011;9683;49.028;12.064;2022-07-23T08:04:25;29.53;;;3.00;;
19101;SDS011;9683;49.028;12.064;2022-07-23T08:06:52;35.40;;;3.33;;
19101;SDS011;9683;49.028;12.064;2022-07-23T08:09:18;54.60;;;3.93;;
19101;SDS011;9683;49.028;12.064;2022-07-23T08:11:45;147.87;;;9.40;;
19101;SDS011;9683;49.028;12.064;2022-07-23T08:14:11;75.60;;;5.90;;
19101;SDS011;9683;49.028;12.064;2022-07-23T08:16:40;65.77;;;4.93;;
19101;SDS011;9683;49.028;12.064;2022-07-23T08:19:06;37.40;;;3.30;;
19101;SDS011;9683;49.028;12.064;2022-07-23T08:21:33;68.97;;;4.80;;
19101;SDS011;9683;49.028;12.064;2022-07-23T08:23:59;95.73;;;6.50;;
19101;SDS011;9683;49.028;12.064;2022-07-23T08:26:26;52.87;;;4.47;;
19101;SDS011;9683;49.028;12.064;2022-07-23T08:28:53;44.67;;;3.77;;
19101;SDS011;9683;49.028;12.064;2022-07-23T08:31:19;51.60;;;5.30;;
19101;SDS011;9683;49.028;12.064;2022-07-23T08:33:47;42.03;;;3.60;;
19101;SDS011;9683;49.028;12.064;2022-07-23T08:36:14;32.37;;;2.93;;
19101;SDS011;9683;49.028;12.064;2022-07-23T08:38:41;42.40;;;3.80;;
19101;SDS011;9683;49.028;12.064;2022-07-23T08:41:08;59.27;;;5.00;;
19101;SDS011;9683;49.028;12.064;2022-07-23T08:43:35;40.03;;;3.63;;
19101;SDS011;9683;49.028;12.064;2022-07-23T08:46:02;57.70;;;4.83;;
19101;SDS011;9683;49.028;12.064;2022-07-23T08:48:30;53.03;;;4.77;;
19101;SDS011;9683;49.028;12.064;2022-07-23T08:51:00;83.73;;;5.77;;
19101;SDS011;9683;49.028;12.064;2022-07-23T08:53:29;48.70;;;3.83;;
19101;SDS011;9683;49.028;12.064;2022-07-23T08:55:57;37.67;;;3.20;;
19101;SDS011;9683;49.028;12.064;2022-07-23T08:58:26;53.07;;;4.40;;
19101;SDS011;9683;49.028;12.064;2022-07-23T09:00:53;43.23;;;3.57;;
19101;SDS011;9683;49.028;12.064;2022-07-23T09:03:21;35.37;;;3.47;;
19101;SDS011;9683;49.028;12.064;2022-07-23T09:05:51;43.47;;;4.03;;
19101;SDS011;9683;49.028;12.064;2022-07-23T09:08:21;34.57;;;3.50;;
19101;SDS011;9683;49.028;12.064;2022-07-23T09:10:49;47.23;;;3.30;;
19101;SDS011;9683;49.028;12.064;2022-07-23T09:13:31;38.00;;;3.37;;
19101;SDS011;9683;49.028;12.064;2022-07-23T09:16:01;29.33;;;3.00;;
19101;SDS011;9683;49.028;12.064;2022-07-23T09:18:31;31.80;;;2.73;;
19101;SDS011;9683;49.028;12.064;2022-07-23T09:21:09;28.17;;;2.50;;
19101;SDS011;9683;49.028;12.064;2022-07-23T09:23:45;33.90;;;3.70;;
19101;SDS011;9683;49.028;12.064;2022-07-23T09:29:06;65.50;;;5.73;;
19101;SDS011;9683;49.028;12.064;2022-07-23T09:31:42;57.10;;;5.00;;
19101;SDS011;9683;49.028;12.064;2022-07-23T09:34:12;57.40;;;4.67;;
19101;SDS011;9683;49.028;12.064;2022-07-23T09:36:40;30.67;;;3.00;;
19101;SDS011;9683;49.028;12.064;2022-07-23T09:39:08;28.07;;;2.53;;
19101;SDS011;9683;49.028;12.064;2022-07-23T09:41:37;37.97;;;3.17;;
19101;SDS011;9683;49.028;12.064;2022-07-23T09:44:10;30.60;;;3.47;;
19101;SDS011;9683;49.028;12.064;2022-07-23T09:46:39;34.70;;;3.40;;
19101;SDS011;9683;49.028;12.064;2022-07-23T09:49:11;52.23;;;4.70;;
19101;SDS011;9683;49.028;12.064;2022-07-23T09:51:44;37.40;;;3.10;;
19101;SDS011;9683;49.028;12.064;2022-07-23T09:54:21;38.33;;;3.63;;
19101;SDS011;9683;49.028;12.064;2022-07-23T09:56:51;43.90;;;3.77;;
19101;SDS011;9683;49.028;12.064;2022-07-23T09:59:18;54.50;;;4.87;;
19101;SDS011;9683;49.028;12.064;2022-07-23T10:01:49;30.27;;;3.03;;
19101;SDS011;9683;49.028;12.064;2022-07-23T10:04:18;63.43;;;5.90;;
19101;SDS011;9683;49.028;12.064;2022-07-23T10:06:44;41.20;;;4.50;;
19101;SDS011;9683;49.028;12.064;2022-07-23T10:09:12;52.23;;;4.77;;
19101;SDS011;9683;49.028;12.064;2022-07-23T10:11:43;44.20;;;3.80;;
19101;SDS011;9683;49.028;12.064;2022-07-23T10:14:10;44.40;;;4.23;;
19101;SDS011;9683;49.028;12.064;2022-07-23T10:16:37;58.63;;;5.77;;
19101;SDS011;9683;49.028;12.064;2022-07-23T10:19:04;31.77;;;3.93;;
19101;SDS011;9683;49.028;12.064;2022-07-23T10:21:34;50.83;;;4.63;;
19101;SDS011;9683;49.028;12.064;2022-07-23T10:24:10;41.73;;;4.30;;
19101;SDS011;9683;49.028;12.064;2022-07-23T10:26:48;48.03;;;4.37;;
19101;SDS011;9683;49.028;12.064;2022-07-23T10:29:28;38.00;;;4.40;;
19101;SDS011;9683;49.028;12.064;2022-07-23T10:32:08;61.73;;;5.57;;
19101;SDS011;9683;49.028;12.064;2022-07-23T10:34:48;39.17;;;3.90;;
19101;SDS011;9683;49.028;12.064;2022-07-23T10:37:21;24.93;;;3.07;;
19101;SDS011;9683;49.028;12.064;2022-07-23T10:40:01;37.53;;;4.10;;
19101;SDS011;9683;49.028;12.064;2022-07-23T10:42:36;74.53;;;5.73;;
19101;SDS011;9683;49.028;12.064;2022-07-23T10:47:49;45.07;;;4.40;;
19101;SDS011;9683;49.028;12.064;2022-07-23T10:50:17;116.00;;;8.63;;
19101;SDS011;9683;49.028;12.064;2022-07-23T10:55:39;39.43;;;4.10;;
19101;SDS011;9683;49.028;12.064;2022-07-23T10:58:09;90.37;;;7.63;;
19101;SDS011;9683;49.028;12.064;2022-07-23T11:00:36;39.57;;;4.67;;
19101;SDS011;9683;49.028;12.064;2022-07-23T11:03:05;55.33;;;4.90;;
19101;SDS011;9683;49.028;12.064;2022-07-23T11:05:47;33.97;;;3.40;;
19101;SDS011;9683;49.028;12.064;2022-07-23T11:08:17;154.60;;;11.53;;
19101;SDS011;9683;49.028;12.064;2022-07-23T11:10:46;101.97;;;7.90;;
19101;SDS011;9683;49.028;12.064;2022-07-23T11:16:24;79.37;;;6.67;;
19101;SDS011;9683;49.028;12.064;2022-07-23T11:21:44;116.07;;;10.07;;
19101;SDS011;9683;49.028;12.064;2022-07-23T11:24:16;77.13;;;8.93;;
19101;SDS011;9683;49.028;12.064;2022-07-23T11:26:48;102.03;;;10.33;;
19101;SDS011;9683;49.028;12.064;2022-07-23T11:32:25;50.53;;;5.63;;
19101;SDS011;9683;49.028;12.064;2022-07-23T11:34:55;89.83;;;7.43;;
19101;SDS011;9683;49.028;12.064;2022-07-23T11:37:31;102.73;;;8.60;;
19101;SDS011;9683;49.028;12.064;2022-07-23T11:40:00;93.93;;;7.97;;
19101;SDS011;9683;49.028;12.064;2022-07-23T11:42:30;99.97;;;8.97;;
19101;SDS011;9683;49.028;12.064;2022-07-23T11:44:56;109.80;;;9.17;;
19101;SDS011;9683;49.028;12.064;2022-07-23T11:47:25;108.17;;;7.97;;
19101;SDS011;9683;49.028;12.064;2022-07-23T11:49:53;84.27;;;7.13;;
19101;SDS011;9683;49.028;12.064;2022-07-23T11:52:21;74.97;;;7.17;;
19101;SDS011;9683;49.028;12.064;2022-07-23T11:54:49;108.67;;;8.33;;
19101;SDS011;9683;49.028;12.064;2022-07-23T11:57:18;114.53;;;8.83;;
19101;SDS011;9683;49.028;12.064;2022-07-23T11:59:45;98.47;;;7.73;;
19101;SDS011;9683;49.028;12.064;2022-07-23T12:02:13;100.93;;;7.93;;
19101;SDS011;9683;49.028;12.064;2022-07-23T12:04:42;77.83;;;7.73;;
19101;SDS011;9683;49.028;12.064;2022-07-23T12:07:22;139.60;;;9.83;;
19101;SDS011;9683;49.028;12.064;2022-07-23T12:10:00;64.10;;;6.83;;
19101;SDS011;9683;49.028;12.064;2022-07-23T12:12:34;42.90;;;5.57;;
19101;SDS011;9683;49.028;12.064;2022-07-23T12:15:02;44.87;;;7.10;;
19101;SDS011;9683;49.028;12.064;2022-07-23T12:17:31;79.63;;;7.50;;
19101;SDS011;9683;49.028;12.064;2022-07-23T12:20:01;47.03;;;5.53;;
19101;SDS011;9683;49.028;12.064;2022-07-23T12:22:33;47.63;;;6.13;;
19101;SDS011;9683;49.028;12.064;2022-07-23T12:25:02;38.60;;;4.90;;
19101;SDS011;9683;49.028;12.064;2022-07-23T12:27:30;41.77;;;5.40;;
19101;SDS011;9683;49.028;12.064;2022-07-23T12:29:57;60.93;;;6.57;;
19101;SDS011;9683;49.028;12.064;2022-07-23T12:32:25;49.33;;;6.50;;
19101;SDS011;9683;49.028;12.064;2022-07-23T12:35:03;47.90;;;5.80;;
19101;SDS011;9683;49.028;12.064;2022-07-23T12:37:31;56.80;;;6.13;;
19101;SDS011;9683;49.028;12.064;2022-07-23T12:42:49;73.67;;;6.60;;
19101;SDS011;9683;49.028;12.064;2022-07-23T12:45:17;124.00;;;9.73;;
19101;SDS011;9683;49.028;12.064;2022-07-23T12:47:51;60.43;;;6.97;;
19101;SDS011;9683;49.028;12.064;2022-07-23T12:50:34;82.43;;;8.23;;
19101;SDS011;9683;49.028;12.064;2022-07-23T12:53:07;138.20;;;10.93;;
19101;SDS011;9683;49.028;12.064;2022-07-23T12:55:35;66.97;;;6.67;;
19101;SDS011;9683;49.028;12.064;2022-07-23T12:58:04;73.53;;;7.67;;
19101;SDS011;9683;49.028;12.064;2022-07-23T13:00:48;74.17;;;7.10;;
19101;SDS011;9683;49.028;12.064;2022-07-23T13:03:23;57.00;;;6.43;;
19101;SDS011;9683;49.028;12.064;2022-07-23T13:05:53;41.13;;;6.10;;
19101;SDS011;9683;49.028;12.064;2022-07-23T13:08:20;40.17;;;6.00;;
19101;SDS011;9683;49.028;12.064;2022-07-23T13:10:47;39.40;;;5.33;;
19101;SDS011;9683;49.028;12.064;2022-07-23T13:13:16;26.43;;;5.10;;
19101;SDS011;9683;49.028;12.064;2022-07-23T13:15:43;58.37;;;6.37;;
19101;SDS011;9683;49.028;12.064;2022-07-23T13:18:10;50.93;;;6.67;;
19101;SDS011;9683;49.028;12.064;2022-07-23T13:20:36;39.70;;;5.47;;
19101;SDS011;9683;49.028;12.064;2022-07-23T13:23:06;47.70;;;5.77;;
19101;SDS011;9683;49.028;12.064;2022-07-23T13:25:33;73.90;;;7.43;;
19101;SDS011;9683;49.028;12.064;2022-07-23T13:28:00;35.63;;;6.30;;
19101;SDS011;9683;49.028;12.064;2022-07-23T13:30:26;58.20;;;6.30;;
19101;SDS011;9683;49.028;12.064;2022-07-23T13:32:53;46.40;;;4.87;;
19101;SDS011;9683;49.028;12.064;2022-07-23T13:35:20;31.53;;;4.33;;
19101;SDS011;9683;49.028;12.064;2022-07-23T13:37:47;37.73;;;4.90;;
19101;SDS011;9683;49.028;12.064;2022-07-23T13:40:15;71.43;;;6.87;;
19101;SDS011;9683;49.028;12.064;2022-07-23T13:42:42;37.17;;;4.57;;
19101;SDS011;9683;49.028;12.064;2022-07-23T13:45:08;33.43;;;5.03;;
19101;SDS011;9683;49.028;12.064;2022-07-23T13:47:35;47.47;;;5.50;;
19101;SDS011;9683;49.028;12.064;2022-07-23T13:50:02;39.07;;;4.50;;
19101;SDS011;9683;49.028;12.064;2022-07-23T13:52:29;32.27;;;3.33;;
19101;SDS011;9683;49.028;12.064;2022-07-23T13:54:58;33.90;;;3.50;;
19101;SDS011;9683;49.028;12.064;2022-07-23T13:57:26;26.53;;;5.00;;
19101;SDS011;9683;49.028;12.064;2022-07-23T13:59:52;50.03;;;6.40;;
19101;SDS011;9683;49.028;12.064;2022-07-23T14:02:19;34.63;;;5.27;;
19101;SDS011;9683;49.028;12.064;2022-07-23T14:04:46;36.10;;;4.63;;
19101;SDS011;9683;49.028;12.064;2022-07-23T14:07:12;38.87;;;4.53;;
19101;SDS011;9683;49.028;12.064;2022-07-23T14:09:39;44.30;;;5.47;;
19101;SDS011;9683;49.028;12.064;2022-07-23T14:12:06;29.27;;;4.70;;
19101;SDS011;9683;49.028;12.064;2022-07-23T14:14:34;39.87;;;4.47;;
19101;SDS011;9683;49.028;12.064;2022-07-23T14:17:01;36.23;;;4.37;;
19101;SDS011;9683;49.028;12.064;2022-07-23T14:19:28;31.57;;;5.37;;
19101;SDS011;9683;49.028;12.064;2022-07-23T14:21:55;41.37;;;5.40;;
19101;SDS011;9683;49.028;12.064;2022-07-23T14:24:22;32.33;;;4.03;;
19101;SDS011;9683;49.028;12.064;2022-07-23T14:26:48;29.87;;;4.30;;
19101;SDS011;9683;49.028;12.064;2022-07-23T14:29:15;33.90;;;4.40;;
19101;SDS011;9683;49.028;12.064;2022-07-23T14:31:43;37.87;;;3.50;;
19101;SDS011;9683;49.028;12.064;2022-07-23T14:34:10;31.10;;;4.33;;
19101;SDS011;9683;49.028;12.064;2022-07-23T14:36:37;36.77;;;4.10;;
19101;SDS011;9683;49.028;12.064;2022-07-23T14:39:04;43.63;;;4.10;;
19101;SDS011;9683;49.028;12.064;2022-07-23T14:41:33;53.27;;;4.60;;
19101;SDS011;9683;49.028;12.064;2022-07-23T14:44:00;34.53;;;3.63;;
19101;SDS011;9683;49.028;12.064;2022-07-23T14:46:27;33.40;;;3.70;;
19101;SDS011;9683;49.028;12.064;2022-07-23T14:48:55;26.13;;;2.90;;
19101;SDS011;9683;49.028;12.064;2022-07-23T14:51:22;28.27;;;3.80;;
19101;SDS011;9683;49.028;12.064;2022-07-23T14:53:48;29.87;;;3.30;;
19101;SDS011;9683;49.028;12.064;2022-07-23T14:56:15;36.10;;;3.43;;
19101;SDS011;9683;49.028;12.064;2022-07-23T14:58:42;42.13;;;3.63;;